Time;durP1;ratioP1;P1;durP2;ratioP2;P2;SDS_P1;SDS_P2;PMS_P1;PMS_P2;Temp;Humidity;BMP_temperature;BMP_pressure;BME280_temperature;BME280_humidity;BME280_pressure;Samples;Min_cycle;Max_cycle;Signal;HPM_P1;HPM_P2
2022/01/17 00:00:59;;;;;;;2.03;0.60;;;19.80;41.40;;;;;;5112198;28;20039;-66
2022/01/17 00:03:25;;;;;;;2.42;0.50;;;19.90;41.30;;;;;;5112022;28;20073;-65
2022/01/17 00:05:52;;;;;;;1.73;0.40;;;20.00;41.20;;;;;;5110800;28;20036;-65
2022/01/17 00:08:18;;;;;;;1.98;0.40;;;20.00;41.10;;;;;;5111979;28;20071;-66
2022/01/17 00:10:44;;;;;;;3.72;0.85;;;20.10;41.00;;;;;;5110999;28;20114;-66
2022/01/17 00:13:14;;;;;;;1.92;0.30;;;20.10;40.80;;;;;;5110944;28;20489;-66
2022/01/17 00:15:47;;;;;;;2.20;0.40;;;20.10;40.80;;;;;;5112125;28;20044;-66
2022/01/17 00:20:52;;;;;;;1.60;0.40;;;20.20;40.60;;;;;;5130277;27;20375;-66
2022/01/17 00:23:18;;;;;;;1.95;0.40;;;20.30;40.50;;;;;;5128964;28;20043;-65
2022/01/17 00:25:44;;;;;;;2.30;0.40;;;20.30;40.40;;;;;;5130315;27;20040;-66
2022/01/17 00:28:10;;;;;;;2.35;0.50;;;20.40;40.40;;;;;;5128938;28;20535;-65
2022/01/17 00:30:35;;;;;;;2.38;0.30;;;20.40;40.20;;;;;;5129100;28;20047;-66
2022/01/17 00:33:04;;;;;;;2.03;0.40;;;20.50;40.20;;;;;;5128802;28;20039;-65
2022/01/17 00:35:29;;;;;;;2.20;0.45;;;20.50;40.10;;;;;;5129930;28;20034;-66
2022/01/17 00:37:58;;;;;;;2.10;0.82;;;20.60;40.10;;;;;;5128650;27;20530;-66
2022/01/17 00:40:25;;;;;;;4.40;0.40;;;20.50;39.90;;;;;;5129993;28;20483;-65
2022/01/17 00:42:50;;;;;;;2.25;0.43;;;20.60;40.00;;;;;;5129932;27;20040;-65
2022/01/17 00:45:19;;;;;;;1.77;0.40;;;20.60;39.90;;;;;;5128912;28;20538;-65
2022/01/17 00:47:45;;;;;;;2.15;0.30;;;20.60;39.90;;;;;;5128751;28;20475;-65
2022/01/17 00:50:11;;;;;;;2.30;0.20;;;20.60;39.70;;;;;;5128571;28;20069;-65
2022/01/17 00:52:37;;;;;;;3.33;0.95;;;20.60;39.70;;;;;;5128391;28;20052;-65
2022/01/17 00:55:03;;;;;;;1.50;0.40;;;20.70;39.70;;;;;;5129807;28;20036;-65
2022/01/17 00:57:29;;;;;;;2.40;0.40;;;20.70;39.60;;;;;;5129927;27;20471;-65
2022/01/17 00:59:55;;;;;;;3.72;0.32;;;20.80;39.50;;;;;;5128113;27;20054;-65
2022/01/17 01:02:20;;;;;;;1.60;0.70;;;20.80;39.40;;;;;;5129547;28;20077;-65
2022/01/17 01:04:46;;;;;;;4.25;0.82;;;20.80;39.30;;;;;;5128310;28;20043;-65
2022/01/17 01:07:12;;;;;;;0.95;0.30;;;20.90;39.30;;;;;;5129382;28;20525;-65
2022/01/17 01:09:48;;;;;;;1.80;0.38;;;20.90;39.20;;;;;;5128071;28;20050;-65
2022/01/17 01:12:14;;;;;;;3.13;0.73;;;20.90;39.10;;;;;;5128211;28;20043;-65
2022/01/17 01:14:41;;;;;;;2.45;0.43;;;20.90;39.10;;;;;;5129235;28;20547;-65
2022/01/17 01:17:19;;;;;;;2.30;0.57;;;20.90;39.00;;;;;;5127889;28;20061;-65
2022/01/17 01:19:45;;;;;;;2.05;0.30;;;21.00;39.00;;;;;;5127698;28;20055;-66
2022/01/17 01:30:22;;;;;;;3.53;0.50;;;21.10;38.70;;;;;;5151585;27;1199676;-65
2022/01/17 01:32:53;;;;;;;2.85;0.52;;;21.10;38.70;;;;;;5153293;27;20074;-65
2022/01/17 01:35:22;;;;;;;3.20;0.75;;;21.10;38.60;;;;;;5152981;27;20080;-65
2022/01/17 01:37:48;;;;;;;2.10;0.35;;;21.20;38.50;;;;;;5153008;27;20541;-65
2022/01/17 01:40:16;;;;;;;1.83;0.30;;;21.20;38.40;;;;;;5171688;27;20050;-65
2022/01/17 01:42:43;;;;;;;2.47;0.40;;;21.20;38.30;;;;;;5171541;27;20035;-66
2022/01/17 01:45:12;;;;;;;2.03;0.30;;;21.20;38.30;;;;;;5153091;27;20081;-65
2022/01/17 01:47:38;;;;;;;2.03;0.20;;;21.30;38.30;;;;;;5153024;27;20034;-65
2022/01/17 01:50:06;;;;;;;2.50;0.32;;;21.30;38.20;;;;;;5152702;27;20043;-65
2022/01/17 01:52:32;;;;;;;2.10;0.20;;;21.30;38.20;;;;;;5152697;27;20508;-65
2022/01/17 01:54:57;;;;;;;2.83;0.60;;;21.30;38.10;;;;;;5152993;27;20031;-66
2022/01/17 01:57:23;;;;;;;2.25;0.45;;;21.40;38.20;;;;;;5171293;27;20546;-65
2022/01/17 01:59:49;;;;;;;4.20;0.40;;;21.30;38.10;;;;;;5171474;27;20489;-65
2022/01/17 02:02:14;;;;;;;3.38;0.50;;;21.40;38.00;;;;;;5152496;27;20046;-65
2022/01/17 02:04:40;;;;;;;3.90;0.65;;;21.40;38.00;;;;;;5171292;27;20049;-65
2022/01/17 02:07:05;;;;;;;3.17;0.30;;;21.40;38.00;;;;;;5152505;27;20185;-65
2022/01/17 02:09:33;;;;;;;3.35;0.60;;;21.40;38.00;;;;;;5171026;27;20034;-65
2022/01/17 02:11:58;;;;;;;1.33;0.40;;;21.40;38.00;;;;;;5152316;27;20043;-65
2022/01/17 02:14:24;;;;;;;1.50;0.28;;;21.40;37.90;;;;;;5152236;27;20042;-65
2022/01/17 02:16:51;;;;;;;2.33;0.20;;;21.40;38.00;;;;;;5171105;27;20034;-65
2022/01/17 02:19:21;;;;;;;2.15;0.20;;;21.40;37.80;;;;;;5170859;27;20042;-65
2022/01/17 02:21:50;;;;;;;4.10;0.60;;;21.50;37.90;;;;;;5170808;27;20117;-65
2022/01/17 02:24:19;;;;;;;1.58;0.28;;;21.50;37.90;;;;;;5152325;27;20070;-65
2022/01/17 02:26:46;;;;;;;1.73;0.28;;;21.50;37.80;;;;;;5170696;27;20042;-66
2022/01/17 02:29:19;;;;;;;2.90;0.70;;;21.50;37.80;;;;;;5170433;27;20493;-65
2022/01/17 02:31:46;;;;;;;3.42;0.40;;;21.50;37.70;;;;;;5152478;27;20038;-65
2022/01/17 02:34:12;;;;;;;2.25;0.30;;;21.50;37.70;;;;;;5170647;27;20050;-65
2022/01/17 02:36:38;;;;;;;1.50;0.30;;;21.50;37.60;;;;;;5152121;27;20095;-66
2022/01/17 02:39:04;;;;;;;3.10;0.40;;;21.50;37.60;;;;;;5170475;27;20030;-65
2022/01/17 02:41:33;;;;;;;2.22;0.50;;;21.50;37.60;;;;;;5139459;27;20430;-66
2022/01/17 02:44:01;;;;;;;1.10;0.20;;;21.60;37.60;;;;;;5137915;27;20034;-65
2022/01/17 02:46:27;;;;;;;1.95;0.30;;;21.60;37.60;;;;;;5156641;27;20066;-65
2022/01/17 02:48:55;;;;;;;1.90;0.43;;;21.60;37.60;;;;;;5137835;27;20078;-65
2022/01/17 02:51:23;;;;;;;2.63;0.30;;;21.60;37.60;;;;;;5138249;27;20061;-65
2022/01/17 02:53:50;;;;;;;1.58;0.45;;;21.60;37.60;;;;;;5138039;27;20062;-66
2022/01/17 02:56:16;;;;;;;2.65;0.35;;;21.60;37.60;;;;;;5137656;27;20039;-65
2022/01/17 02:58:42;;;;;;;2.67;0.30;;;21.60;37.50;;;;;;5137650;27;20049;-65
2022/01/17 03:01:11;;;;;;;2.90;0.30;;;21.60;37.50;;;;;;5156314;27;20164;-65
2022/01/17 03:03:40;;;;;;;2.83;0.50;;;21.60;37.50;;;;;;5156089;27;20110;-66
2022/01/17 03:06:06;;;;;;;2.28;0.30;;;21.60;37.50;;;;;;5137537;27;20031;-65
2022/01/17 03:08:33;;;;;;;2.50;0.30;;;21.60;37.50;;;;;;5156040;27;20035;-65
2022/01/17 03:11:01;;;;;;;2.75;0.40;;;21.60;37.40;;;;;;5137304;27;20034;-65
2022/01/17 03:13:32;;;;;;;1.10;0.20;;;21.60;37.40;;;;;;5155962;27;20041;-65
2022/01/17 03:16:04;;;;;;;2.30;0.73;;;21.70;37.40;;;;;;5137482;27;20534;-66
2022/01/17 03:18:33;;;;;;;2.20;0.40;;;21.70;37.30;;;;;;5137275;27;20552;-66
2022/01/17 03:21:00;;;;;;;2.50;0.38;;;21.80;37.30;;;;;;5155841;27;20034;-66
2022/01/17 03:23:27;;;;;;;2.88;0.22;;;21.70;37.20;;;;;;5137286;27;20103;-65
2022/01/17 03:25:53;;;;;;;2.45;0.32;;;21.80;37.20;;;;;;5137287;27;20050;-65
2022/01/17 03:28:19;;;;;;;4.35;0.60;;;21.80;37.10;;;;;;5155245;27;20039;-65
2022/01/17 03:30:45;;;;;;;1.95;0.40;;;21.90;37.00;;;;;;5137018;27;20527;-66
2022/01/17 03:33:13;;;;;;;2.92;0.38;;;21.90;37.00;;;;;;5137369;27;20031;-65
2022/01/17 03:35:40;;;;;;;1.75;0.40;;;21.90;36.90;;;;;;5136911;27;20071;-65
2022/01/17 03:38:08;;;;;;;3.90;0.50;;;22.00;36.90;;;;;;5137106;27;20043;-66
2022/01/17 03:40:34;;;;;;;2.28;0.45;;;22.00;36.80;;;;;;5155326;27;20501;-65
2022/01/17 03:42:59;;;;;;;2.78;0.40;;;22.00;36.80;;;;;;5155410;27;20401;-65
2022/01/17 03:45:25;;;;;;;2.35;0.30;;;22.00;36.80;;;;;;5136928;27;20277;-66
2022/01/17 03:47:52;;;;;;;2.95;0.60;;;22.00;36.80;;;;;;5155517;27;20034;-66
2022/01/17 03:50:21;;;;;;;1.90;0.20;;;22.00;36.80;;;;;;5136549;27;20043;-65
2022/01/17 03:52:48;;;;;;;2.65;0.40;;;21.90;36.70;;;;;;5135521;27;20066;-67
2022/01/17 03:55:18;;;;;;;2.45;0.40;;;21.90;36.80;;;;;;5136444;27;20043;-65
2022/01/17 03:57:44;;;;;;;3.70;0.30;;;21.80;36.70;;;;;;5155453;27;20038;-66
2022/01/17 04:00:15;;;;;;;1.75;0.30;;;21.80;36.70;;;;;;5155088;27;20043;-65
2022/01/17 04:02:41;;;;;;;3.05;0.30;;;21.80;36.70;;;;;;5136581;27;20039;-66
2022/01/17 04:05:08;;;;;;;4.28;0.85;;;21.80;36.80;;;;;;5136377;27;20125;-66
2022/01/17 04:07:33;;;;;;;2.55;0.50;;;21.80;36.80;;;;;;5136546;27;20418;-65
2022/01/17 04:09:59;;;;;;;3.08;0.40;;;21.80;36.70;;;;;;5136168;27;20041;-66
2022/01/17 04:12:25;;;;;;;2.85;0.50;;;21.80;36.70;;;;;;5154642;27;20039;-65
2022/01/17 04:14:54;;;;;;;2.67;0.40;;;21.80;36.70;;;;;;5136531;27;20062;-67
2022/01/17 04:17:23;;;;;;;2.83;0.55;;;21.90;36.70;;;;;;5154631;27;20518;-66
2022/01/17 04:19:52;;;;;;;1.50;0.40;;;21.90;36.70;;;;;;5136299;27;20081;-66
2022/01/17 04:22:18;;;;;;;3.13;0.30;;;21.90;36.60;;;;;;5119429;27;20042;-66
2022/01/17 04:24:43;;;;;;;2.30;0.40;;;22.00;36.60;;;;;;5136170;27;20126;-67
2022/01/17 04:27:09;;;;;;;2.30;0.30;;;22.00;36.50;;;;;;5136219;27;20565;-66
2022/01/17 04:29:38;;;;;;;2.17;0.20;;;22.00;36.50;;;;;;5154119;27;20086;-66
2022/01/17 04:32:07;;;;;;;3.45;0.40;;;22.00;36.40;;;;;;5135748;27;20129;-65
2022/01/17 04:34:34;;;;;;;2.67;0.30;;;22.00;36.50;;;;;;5136018;27;20105;-66
2022/01/17 04:37:00;;;;;;;2.22;0.35;;;22.00;36.40;;;;;;5154157;27;20089;-66
2022/01/17 04:39:26;;;;;;;2.80;0.30;;;22.00;36.40;;;;;;5154422;27;20039;-65
2022/01/17 04:41:51;;;;;;;3.70;0.40;;;22.00;36.40;;;;;;5135625;27;20470;-66
2022/01/17 04:47:03;;;;;;;2.28;0.20;;;22.10;36.50;;;;;;5135557;27;20050;-66
2022/01/17 04:49:28;;;;;;;2.95;0.30;;;22.00;36.50;;;;;;5135728;27;20043;-66
2022/01/17 04:51:55;;;;;;;2.78;0.32;;;22.00;36.50;;;;;;5135726;27;20058;-66
2022/01/17 04:57:03;;;;;;;3.08;0.38;;;21.90;36.50;;;;;;5130405;27;20399;-66
2022/01/17 04:59:28;;;;;;;2.83;0.30;;;21.90;36.50;;;;;;5130173;28;20469;-66
2022/01/17 05:01:54;;;;;;;2.08;0.40;;;21.90;36.50;;;;;;5129311;28;20387;-65
2022/01/17 05:04:19;;;;;;;1.65;0.30;;;21.90;36.50;;;;;;5129061;28;20483;-65
2022/01/17 05:06:45;;;;;;;3.40;0.30;;;21.90;36.60;;;;;;5129190;28;20560;-66
2022/01/17 05:09:11;;;;;;;1.58;0.30;;;21.80;36.50;;;;;;5128754;27;20114;-65
2022/01/17 05:11:36;;;;;;;1.60;0.30;;;21.90;36.50;;;;;;5130024;28;20038;-66
2022/01/17 05:14:02;;;;;;;3.72;0.50;;;21.90;36.60;;;;;;5128894;28;20036;-66
2022/01/17 05:16:35;;;;;;;2.13;0.52;;;21.90;36.50;;;;;;5128589;28;20043;-66
2022/01/17 05:21:46;;;;;;;1.58;0.30;;;21.90;36.50;;;;;;5129729;27;20505;-66
2022/01/17 05:24:12;;;;;;;2.60;0.30;;;22.00;36.50;;;;;;5129847;28;20023;-66
2022/01/17 05:26:37;;;;;;;2.00;0.20;;;22.00;36.50;;;;;;5128781;28;20161;-66
2022/01/17 05:29:03;;;;;;;2.38;0.30;;;22.00;36.50;;;;;;5128447;28;20475;-65
2022/01/17 05:31:29;;;;;;;3.33;0.50;;;22.00;36.50;;;;;;5129672;27;20086;-66
2022/01/17 05:33:55;;;;;;;3.90;0.90;;;22.00;36.50;;;;;;5129533;27;20115;-66
2022/01/17 05:36:21;;;;;;;3.17;0.45;;;22.00;36.50;;;;;;5129613;28;20043;-66
2022/01/17 05:38:47;;;;;;;3.70;0.60;;;22.00;37.20;;;;;;5128219;28;20036;-65
2022/01/17 05:41:12;;;;;;;2.00;0.50;;;22.00;36.50;;;;;;5129459;28;20065;-66
2022/01/17 05:43:38;;;;;;;3.92;0.40;;;22.00;36.50;;;;;;5128087;28;20043;-66
2022/01/17 05:46:03;;;;;;;2.13;0.28;;;22.00;36.50;;;;;;5128114;28;20043;-66
2022/01/17 05:48:29;;;;;;;2.40;0.70;;;22.00;36.60;;;;;;5128433;28;20116;-66
2022/01/17 05:50:55;;;;;;;2.65;0.40;;;21.90;36.60;;;;;;5127906;28;20398;-66
2022/01/17 05:53:20;;;;;;;3.63;0.50;;;22.00;36.60;;;;;;5128088;28;20043;-66
2022/01/17 05:55:46;;;;;;;2.58;0.30;;;21.90;36.60;;;;;;5128900;28;20063;-66
2022/01/17 05:58:12;;;;;;;2.63;0.40;;;21.90;36.60;;;;;;5129177;28;20044;-66
2022/01/17 06:00:38;;;;;;;2.75;0.50;;;22.00;36.70;;;;;;5127735;28;20093;-66
2022/01/17 06:03:04;;;;;;;2.63;0.50;;;21.90;36.70;;;;;;5129069;27;20067;-67
2022/01/17 06:05:29;;;;;;;1.83;0.30;;;22.00;36.70;;;;;;5127647;28;20067;-66
2022/01/17 06:07:55;;;;;;;1.95;0.43;;;21.90;36.70;;;;;;5116836;28;20077;-66
2022/01/17 06:10:21;;;;;;;2.75;0.30;;;21.90;36.70;;;;;;5115329;28;20036;-66
2022/01/17 06:12:47;;;;;;;2.35;0.32;;;21.90;36.70;;;;;;5114229;28;20039;-66
2022/01/17 06:15:12;;;;;;;3.78;0.30;;;21.90;36.70;;;;;;5114921;28;20040;-65
2022/01/17 06:17:38;;;;;;;2.42;0.28;;;21.90;36.70;;;;;;5113971;28;20032;-66
2022/01/17 06:20:05;;;;;;;2.17;0.35;;;21.90;36.80;;;;;;5113863;28;20027;-66
2022/01/17 06:22:31;;;;;;;2.88;0.55;;;21.90;36.80;;;;;;5115158;28;20039;-66
2022/01/17 06:24:56;;;;;;;2.22;0.30;;;21.90;36.70;;;;;;5113539;28;20048;-66
2022/01/17 06:27:22;;;;;;;2.88;0.47;;;21.90;36.80;;;;;;5113130;28;20133;-65
2022/01/17 06:29:48;;;;;;;4.28;0.52;;;21.90;36.80;;;;;;5114837;28;20047;-68
2022/01/17 06:32:13;;;;;;;3.25;0.57;;;22.00;37.20;;;;;;5113258;28;20043;-68
2022/01/17 06:34:39;;;;;;;2.85;0.40;;;21.90;37.70;;;;;;5109003;28;20085;-68
2022/01/17 06:37:04;;;;;;;2.22;0.38;;;21.80;38.00;;;;;;5111530;28;20043;-69
2022/01/17 06:39:30;;;;;;;4.50;0.50;;;21.70;38.40;;;;;;5111496;28;20552;-69
2022/01/17 06:41:56;;;;;;;4.05;0.63;;;21.60;38.50;;;;;;5112155;28;20039;-68
2022/01/17 06:44:22;;;;;;;4.18;0.40;;;21.60;38.70;;;;;;5111386;28;20059;-68
2022/01/17 06:46:47;;;;;;;4.20;0.35;;;21.60;38.70;;;;;;5111341;28;20524;-72
2022/01/17 06:49:13;;;;;;;2.35;0.80;;;21.50;38.80;;;;;;5111666;28;20071;-71
2022/01/17 06:51:39;;;;;;;2.20;0.55;;;21.50;38.90;;;;;;5111728;28;20103;-71
2022/01/17 06:54:05;;;;;;;2.65;0.47;;;21.40;39.10;;;;;;5112601;28;20031;-69
2022/01/17 06:56:31;;;;;;;2.10;0.40;;;21.30;39.30;;;;;;5109471;28;20139;-72
2022/01/17 06:58:56;;;;;;;4.57;0.65;;;21.20;39.40;;;;;;5110855;28;20080;-72
2022/01/17 07:01:23;;;;;;;3.05;0.70;;;21.10;39.60;;;;;;5110310;28;20039;-68
2022/01/17 07:03:50;;;;;;;5.20;0.60;;;21.00;39.80;;;;;;5123000;27;20044;-72
2022/01/17 07:06:16;;;;;;;2.28;0.45;;;20.90;39.90;;;;;;5108383;28;20039;-73
2022/01/17 07:08:44;;;;;;;5.30;0.50;;;20.70;40.30;;;;;;5091745;27;20046;-68
2022/01/17 07:11:12;;;;;;;3.75;0.43;;;20.60;40.70;;;;;;5085484;27;20067;-71
2022/01/17 07:13:39;;;;;;;6.53;0.82;;;20.50;41.00;;;;;;5090797;28;20039;-72
2022/01/17 07:16:04;;;;;;;4.50;0.63;;;20.30;41.20;;;;;;5091198;27;20042;-71
2022/01/17 07:18:30;;;;;;;4.55;0.73;;;20.20;41.50;;;;;;5086893;28;20047;-72
2022/01/17 07:20:56;;;;;;;3.42;0.60;;;20.10;42.00;;;;;;5093353;28;20040;-72
2022/01/17 07:23:22;;;;;;;3.28;0.68;;;19.90;42.40;;;;;;5093424;28;20032;-71
2022/01/17 07:25:47;;;;;;;3.05;0.77;;;19.80;42.60;;;;;;5097508;28;20446;-69
2022/01/17 07:28:13;;;;;;;3.42;0.93;;;19.70;42.70;;;;;;5093315;27;20047;-67
2022/01/17 07:30:40;;;;;;;5.28;1.08;;;19.60;42.70;;;;;;5097388;28;20043;-69
2022/01/17 07:33:07;;;;;;;8.10;1.95;;;19.50;42.80;;;;;;5091591;27;20038;-70
2022/01/17 07:35:34;;;;;;;6.47;1.92;;;19.30;42.50;;;;;;5092707;28;20115;-73
2022/01/17 07:38:00;;;;;;;7.22;2.00;;;19.20;42.60;;;;;;5096037;27;20145;-71
2022/01/17 07:40:26;;;;;;;7.80;1.77;;;19.10;42.70;;;;;;5095377;28;20498;-72
2022/01/17 07:42:52;;;;;;;5.05;1.77;;;19.00;42.80;;;;;;5094128;28;20032;-70
2022/01/17 07:45:20;;;;;;;8.75;2.28;;;18.80;42.90;;;;;;5100459;28;20065;-69
2022/01/17 07:50:36;;;;;;;7.13;1.33;;;18.60;43.70;;;;;;5111873;27;20392;-69
2022/01/17 07:53:02;;;;;;;7.55;1.33;;;18.60;44.50;;;;;;5108607;27;20039;-69
2022/01/17 07:55:28;;;;;;;5.03;1.58;;;18.50;44.80;;;;;;5109923;27;20475;-69
2022/01/17 07:57:55;;;;;;;6.70;1.55;;;18.50;45.20;;;;;;5107153;27;20057;-72
2022/01/17 08:00:22;;;;;;;5.55;1.17;;;18.50;45.70;;;;;;5124854;27;20090;-68
2022/01/17 08:02:49;;;;;;;5.55;1.63;;;18.40;46.60;;;;;;5108844;27;20043;-69
2022/01/17 08:05:15;;;;;;;5.85;1.05;;;18.40;45.80;;;;;;5111669;27;20043;-69
2022/01/17 08:07:42;;;;;;;4.75;1.13;;;18.50;45.80;;;;;;5113043;27;20039;-68
2022/01/17 08:10:12;;;;;;;5.15;1.48;;;18.50;45.80;;;;;;5110005;27;20492;-69
2022/01/17 08:12:40;;;;;;;10.50;1.43;;;18.50;45.90;;;;;;5109368;27;20047;-69
2022/01/17 08:15:09;;;;;;;6.20;1.45;;;18.50;46.00;;;;;;5113197;27;20666;-68
2022/01/17 08:17:35;;;;;;;4.70;1.10;;;18.50;46.00;;;;;;5111208;27;20044;-68
2022/01/17 08:20:00;;;;;;;2.65;0.70;;;18.60;45.80;;;;;;5125594;27;20140;-68
2022/01/17 08:22:26;;;;;;;7.78;1.20;;;18.50;45.70;;;;;;5107760;27;20128;-67
2022/01/17 08:24:52;;;;;;;5.93;1.13;;;18.50;45.60;;;;;;5110635;27;20036;-68
2022/01/17 08:27:18;;;;;;;5.07;0.90;;;18.40;45.60;;;;;;5111765;27;20047;-68
2022/01/17 08:29:43;;;;;;;5.05;1.20;;;18.40;45.90;;;;;;5104828;27;20054;-67
2022/01/17 08:32:09;;;;;;;4.28;1.10;;;18.40;46.10;;;;;;5101399;27;20035;-66
2022/01/17 08:34:35;;;;;;;12.60;1.52;;;18.40;46.20;;;;;;5106096;27;20044;-67
2022/01/17 08:37:02;;;;;;;4.05;0.85;;;18.30;46.30;;;;;;5093108;28;20067;-67
2022/01/17 08:39:28;;;;;;;4.93;1.30;;;18.30;46.40;;;;;;5106648;27;20176;-68
2022/01/17 08:41:56;;;;;;;4.47;0.80;;;18.20;46.40;;;;;;5110840;27;20039;-70
2022/01/17 08:44:23;;;;;;;4.50;0.98;;;18.20;46.60;;;;;;5106774;27;20405;-67
2022/01/17 08:46:48;;;;;;;5.30;1.08;;;18.20;46.70;;;;;;5111177;27;20047;-67
2022/01/17 08:49:15;;;;;;;6.80;1.10;;;18.10;46.80;;;;;;5106933;27;20078;-69
2022/01/17 08:51:41;;;;;;;4.47;0.80;;;18.10;46.90;;;;;;5109211;27;20497;-67
2022/01/17 08:54:06;;;;;;;5.35;1.58;;;18.10;47.00;;;;;;5110423;27;20027;-66
2022/01/17 08:56:33;;;;;;;3.55;0.90;;;18.10;47.10;;;;;;5107424;27;20039;-66
2022/01/17 08:58:59;;;;;;;5.63;1.30;;;18.00;47.10;;;;;;5107837;27;20043;-66
2022/01/17 09:01:25;;;;;;;6.20;1.10;;;18.00;47.30;;;;;;5097090;27;20131;-67
2022/01/17 09:03:51;;;;;;;5.50;1.33;;;18.00;48.10;;;;;;5092263;28;20425;-67
2022/01/17 09:06:17;;;;;;;6.13;1.25;;;18.00;47.40;;;;;;5099506;28;20040;-67
2022/01/17 09:08:43;;;;;;;7.53;0.90;;;17.90;47.40;;;;;;5089489;28;20040;-66
2022/01/17 09:11:09;;;;;;;4.68;0.85;;;17.90;47.50;;;;;;5089781;28;20071;-67
2022/01/17 09:13:35;;;;;;;3.83;1.33;;;17.90;47.60;;;;;;5112000;27;20039;-69
2022/01/17 09:16:01;;;;;;;4.60;1.15;;;17.90;47.60;;;;;;5089915;28;20558;-66
2022/01/17 09:18:26;;;;;;;4.70;0.90;;;17.90;48.30;;;;;;5103582;27;20089;-70
2022/01/17 09:20:52;;;;;;;5.63;1.10;;;17.90;47.60;;;;;;5087695;28;20283;-66
2022/01/17 09:23:18;;;;;;;7.20;1.35;;;17.90;47.60;;;;;;5088639;27;20628;-67
2022/01/17 09:25:44;;;;;;;11.50;2.25;;;17.90;47.60;;;;;;5086737;28;20101;-69
2022/01/17 09:28:10;;;;;;;5.28;1.30;;;17.90;47.60;;;;;;5092231;28;20115;-68
2022/01/17 09:30:36;;;;;;;6.65;1.17;;;17.90;47.60;;;;;;5092961;28;20128;-68
2022/01/17 09:33:03;;;;;;;9.00;2.05;;;17.90;47.50;;;;;;5089299;28;20040;-68
2022/01/17 09:35:30;;;;;;;7.13;1.17;;;18.00;47.50;;;;;;5094392;28;20047;-69
2022/01/17 09:37:56;;;;;;;5.95;1.80;;;18.00;47.40;;;;;;5090095;27;20399;-68
2022/01/17 09:40:22;;;;;;;6.88;1.25;;;18.00;47.30;;;;;;5107195;27;20066;-69
2022/01/17 09:42:48;;;;;;;10.57;1.48;;;18.00;47.30;;;;;;5093234;28;20047;-66
2022/01/17 09:45:18;;;;;;;8.75;1.65;;;18.10;47.30;;;;;;5091153;27;20050;-68
2022/01/17 09:47:45;;;;;;;9.07;1.67;;;18.00;47.10;;;;;;5094611;28;20490;-68
2022/01/17 09:50:16;;;;;;;9.77;2.33;;;18.10;47.10;;;;;;5090964;27;20662;-69
2022/01/17 09:52:48;;;;;;;8.32;1.80;;;18.10;47.00;;;;;;5084445;27;20051;-73
2022/01/17 09:55:21;;;;;;;6.25;1.63;;;18.10;46.90;;;;;;5090861;27;20476;-67
2022/01/17 10:00:34;;;;;;;6.88;1.92;;;18.00;46.90;;;;;;5055403;27;21190;-67
2022/01/17 10:03:06;;;;;;;10.07;1.65;;;18.10;47.00;;;;;;5049070;28;20571;-69
2022/01/17 10:05:33;;;;;;;8.20;1.75;;;18.00;46.90;;;;;;5050766;28;20052;-66
2022/01/17 10:19:03;;;;;;;7.80;2.15;;;18.00;46.90;;;;;;5065118;27;20468;-66
2022/01/17 10:21:40;;;;;;;6.85;1.27;;;17.90;46.90;;;;;;5067519;28;20049;-69
2022/01/17 10:38:10;;;;;;;5.63;1.58;;;17.90;47.00;;;;;;5042457;28;20458;-72
2022/01/17 10:40:42;;;;;;;6.50;1.27;;;17.90;47.00;;;;;;5016860;28;20050;-70
2022/01/17 10:43:20;;;;;;;8.93;1.65;;;17.90;47.00;;;;;;5050073;28;20079;-69
2022/01/17 10:45:46;;;;;;;8.98;1.70;;;17.90;46.90;;;;;;5049428;28;20053;-71
2022/01/17 10:48:12;;;;;;;10.27;2.13;;;17.90;46.90;;;;;;5014563;28;20053;-69
2022/01/17 10:50:44;;;;;;;4.80;1.33;;;17.90;46.80;;;;;;5017034;28;20448;-66
2022/01/17 10:53:12;;;;;;;9.95;1.77;;;17.90;46.80;;;;;;5017767;28;20099;-66
2022/01/17 10:55:41;;;;;;;8.23;1.70;;;17.90;46.80;;;;;;5047326;28;21388;-67
2022/01/17 10:58:10;;;;;;;9.27;1.55;;;18.00;46.80;;;;;;5012480;28;20037;-67
2022/01/17 11:00:39;;;;;;;10.32;2.35;;;17.90;46.90;;;;;;5017022;28;20755;-71
2022/01/17 11:03:09;;;;;;;9.73;2.42;;;17.90;46.90;;;;;;5050880;28;20042;-73
2022/01/17 11:05:37;;;;;;;10.20;2.45;;;17.90;46.90;;;;;;5026104;28;20111;-67
2022/01/17 11:08:03;;;;;;;10.70;2.63;;;17.90;47.00;;;;;;5019756;28;20037;-70
2022/01/17 11:10:34;;;;;;;9.02;1.60;;;18.00;47.00;;;;;;5019270;28;20385;-66
2022/01/17 11:13:02;;;;;;;;;;;18.00;47.00;;;;;;5017885;28;20046;-67
2022/01/17 11:15:32;;;;;;;10.75;1.85;;;18.00;47.00;;;;;;5015331;28;19928;-67
2022/01/17 11:18:03;;;;;;;5.10;2.00;;;18.00;46.90;;;;;;5052338;28;20533;-67
2022/01/17 11:20:29;;;;;;;5.18;1.60;;;18.00;46.90;;;;;;5022902;28;20555;-66
2022/01/17 11:22:57;;;;;;;9.48;3.00;;;18.00;46.90;;;;;;5022273;28;20037;-66
2022/01/17 11:25:29;;;;;;;4.90;1.48;;;18.00;46.90;;;;;;5054748;28;20033;-66
2022/01/17 11:27:56;;;;;;;8.30;1.85;;;18.00;46.90;;;;;;5053183;28;20113;-74
2022/01/17 11:30:21;;;;;;;8.73;1.65;;;17.90;46.90;;;;;;5017264;28;20059;-73
2022/01/17 11:32:49;;;;;;;6.90;2.00;;;18.00;46.90;;;;;;5043252;28;20536;-68
2022/01/17 11:35:17;;;;;;;10.75;1.90;;;17.90;46.90;;;;;;5048274;28;20584;-67
2022/01/17 11:37:48;;;;;;;7.78;1.70;;;17.90;47.00;;;;;;5048396;28;20065;-67
2022/01/17 11:40:15;;;;;;;8.57;2.25;;;17.90;47.00;;;;;;5046156;28;20057;-68
2022/01/17 11:48:08;;;;;;;6.00;1.95;;;17.90;47.10;;;;;;5052921;28;20506;-70
2022/01/17 11:50:43;;;;;;;5.57;1.70;;;17.90;47.20;;;;;;5052265;28;20045;-73
2022/01/17 11:55:50;;;;;;;10.32;2.10;;;17.90;47.20;;;;;;5053124;28;20869;-67
2022/01/17 12:06:33;;;;;;;11.45;2.53;;;18.00;48.30;;;;;;5099911;27;20438;-72
2022/01/17 12:09:23;;;;;;;10.15;2.25;;;18.00;48.30;;;;;;5101750;28;20050;-72
2022/01/17 12:14:52;;;;;;;9.77;2.47;;;17.90;48.10;;;;;;5053751;27;21160;-67
2022/01/17 12:30:54;;;;;;;8.48;2.60;;;18.00;48.10;;;;;;5091493;27;20494;-73
2022/01/17 12:33:40;;;;;;;7.82;2.05;;;18.00;47.90;;;;;;5102392;27;20568;-72
2022/01/17 12:39:23;;;;;;;9.57;2.55;;;17.90;47.90;;;;;;5127571;27;1163942;-70
2022/01/17 12:41:52;;;;;;;10.35;1.95;;;18.00;47.90;;;;;;5127575;27;20053;-73
2022/01/17 12:47:03;;;;;;;9.25;2.28;;;17.90;47.90;;;;;;5116681;27;1157941;-74
2022/01/17 12:49:31;;;;;;;6.63;1.58;;;18.00;48.00;;;;;;5110341;27;20167;-67
2022/01/17 12:51:59;;;;;;;9.85;2.20;;;17.90;47.90;;;;;;5121866;27;20064;-72
2022/01/17 12:54:29;;;;;;;8.38;2.50;;;17.90;47.90;;;;;;5116124;27;20047;-68
2022/01/17 12:56:56;;;;;;;8.50;2.47;;;17.90;47.90;;;;;;5121120;27;20483;-68
2022/01/17 12:59:23;;;;;;;9.82;2.30;;;17.90;47.80;;;;;;5138312;27;20038;-71
2022/01/17 13:01:54;;;;;;;8.77;2.15;;;17.90;47.90;;;;;;5123883;27;20085;-75
2022/01/17 13:04:20;;;;;;;;;;;17.90;47.80;;;;;;5120220;27;20049;-76
2022/01/17 13:06:52;;;;;;;7.85;2.22;;;17.90;47.80;;;;;;5121431;27;20014;-76
2022/01/17 13:09:21;;;;;;;9.35;1.98;;;17.90;47.80;;;;;;5121265;27;20039;-69
2022/01/17 13:11:48;;;;;;;8.23;2.30;;;18.00;47.80;;;;;;5135977;27;20039;-71
2022/01/17 13:14:17;;;;;;;8.30;2.13;;;17.90;47.80;;;;;;5112144;27;20042;-73
2022/01/17 13:16:43;;;;;;;8.30;2.03;;;17.90;48.60;;;;;;5128281;27;20039;-75
2022/01/17 13:19:11;;;;;;;8.60;3.20;;;17.90;48.50;;;;;;5114164;27;20130;-77
2022/01/17 13:21:39;;;;;;;9.40;2.20;;;17.90;49.10;;;;;;5117324;27;20055;-74
2022/01/17 13:24:18;;;;;;;8.70;2.00;;;18.00;49.50;;;;;;5132331;27;20456;-70
2022/01/17 13:29:27;;;;;;;12.32;2.72;;;18.00;50.20;;;;;;5100076;27;20832;-73
2022/01/17 13:31:53;;;;;;;12.13;2.83;;;18.00;50.60;;;;;;5106626;27;20121;-70
2022/01/17 13:34:22;;;;;;;11.30;2.55;;;18.10;50.80;;;;;;5091986;28;20065;-71
2022/01/17 13:36:51;;;;;;;10.13;1.77;;;18.10;51.10;;;;;;5089105;28;20467;-73
2022/01/17 13:39:20;;;;;;;12.50;2.37;;;18.10;51.30;;;;;;5094055;28;20044;-78
2022/01/17 13:41:50;;;;;;;7.57;1.90;;;18.10;51.40;;;;;;5083751;28;20047;-71
2022/01/17 13:44:21;;;;;;;12.35;2.28;;;18.20;51.60;;;;;;5091385;28;20044;-67
2022/01/17 13:52:25;;;;;;;10.98;2.00;;;18.20;51.80;;;;;;5060909;28;20420;-71
2022/01/17 13:54:51;;;;;;;10.65;1.98;;;18.20;52.20;;;;;;5053399;28;20064;-78
2022/01/17 13:57:20;;;;;;;8.63;2.03;;;18.20;52.30;;;;;;5032941;28;20532;-75
2022/01/17 14:00:07;;;;;;;10.75;2.28;;;18.20;52.50;;;;;;5043784;28;20930;-74
2022/01/17 14:02:37;;;;;;;14.88;3.38;;;18.20;52.50;;;;;;5035126;28;20045;-76
2022/01/17 14:05:04;;;;;;;16.35;3.60;;;18.20;52.00;;;;;;5029356;28;20116;-72
2022/01/17 14:07:30;;;;;;;16.02;3.60;;;18.20;50.70;;;;;;5036704;28;20045;-72
2022/01/17 14:09:56;;;;;;;16.73;3.67;;;18.10;50.20;;;;;;5039928;28;20064;-73
2022/01/17 14:12:24;;;;;;;18.80;4.15;;;18.10;50.00;;;;;;5038013;28;20067;-73
2022/01/17 14:14:54;;;;;;;14.05;3.38;;;18.00;49.30;;;;;;5037524;28;20041;-73
2022/01/17 14:17:29;;;;;;;14.43;3.38;;;18.00;49.30;;;;;;5033330;28;20033;-73
2022/01/17 14:22:51;;;;;;;10.75;3.45;;;18.00;49.40;;;;;;5121524;27;20444;-71
2022/01/17 14:25:22;;;;;;;11.10;3.13;;;18.10;49.30;;;;;;5122630;28;20055;-66